sensor_id;sensor_type;location;lat;lon;timestamp;P1;durP1;ratioP1;P2;durP2;ratioP2
82292;SDS011;71892;14.836;105.234;2024-01-15T00:01:21;80.55;;;45.92;;
82292;SDS011;71892;14.836;105.234;2024-01-15T00:03:48;96.30;;;43.97;;
82292;SDS011;71892;14.836;105.234;2024-01-15T00:06:14;74.57;;;36.08;;
82292;SDS011;71892;14.836;105.234;2024-01-15T00:08:40;69.78;;;37.90;;
82292;SDS011;71892;14.836;105.234;2024-01-15T00:11:07;67.03;;;36.40;;
82292;SDS011;71892;14.836;105.234;2024-01-15T00:13:33;71.75;;;34.22;;
82292;SDS011;71892;14.836;105.234;2024-01-15T00:15:59;38.70;;;21.92;;
82292;SDS011;71892;14.836;105.234;2024-01-15T00:18:26;39.42;;;21.70;;
82292;SDS011;71892;14.836;105.234;2024-01-15T00:20:52;57.63;;;30.27;;
82292;SDS011;71892;14.836;105.234;2024-01-15T00:23:18;61.50;;;32.80;;
82292;SDS011;71892;14.836;105.234;2024-01-15T00:25:45;59.03;;;31.95;;
82292;SDS011;71892;14.836;105.234;2024-01-15T00:28:11;55.90;;;30.00;;
82292;SDS011;71892;14.836;105.234;2024-01-15T00:30:37;64.75;;;32.88;;
82292;SDS011;71892;14.836;105.234;2024-01-15T00:33:04;70.35;;;36.20;;
82292;SDS011;71892;14.836;105.234;2024-01-15T00:35:30;75.80;;;35.55;;
82292;SDS011;71892;14.836;105.234;2024-01-15T00:37:57;68.32;;;33.55;;
82292;SDS011;71892;14.836;105.234;2024-01-15T00:40:23;126.53;;;41.88;;
82292;SDS011;71892;14.836;105.234;2024-01-15T00:42:51;71.65;;;35.05;;
82292;SDS011;71892;14.836;105.234;2024-01-15T00:45:17;80.57;;;41.97;;
82292;SDS011;71892;14.836;105.234;2024-01-15T00:47:43;89.70;;;40.70;;
82292;SDS011;71892;14.836;105.234;2024-01-15T00:50:10;57.20;;;26.95;;
82292;SDS011;71892;14.836;105.234;2024-01-15T00:52:36;58.92;;;25.42;;
82292;SDS011;71892;14.836;105.234;2024-01-15T00:55:02;42.50;;;16.85;;
82292;SDS011;71892;14.836;105.234;2024-01-15T00:57:29;37.50;;;17.85;;
82292;SDS011;71892;14.836;105.234;2024-01-15T00:59:56;30.95;;;17.17;;
82292;SDS011;71892;14.836;105.234;2024-01-15T01:02:22;34.75;;;17.50;;
82292;SDS011;71892;14.836;105.234;2024-01-15T01:04:48;35.30;;;16.42;;
82292;SDS011;71892;14.836;105.234;2024-01-15T01:07:15;31.00;;;15.85;;
82292;SDS011;71892;14.836;105.234;2024-01-15T01:09:41;37.20;;;17.15;;
82292;SDS011;71892;14.836;105.234;2024-01-15T01:12:09;32.03;;;15.77;;
82292;SDS011;71892;14.836;105.234;2024-01-15T01:14:35;36.50;;;23.40;;
82292;SDS011;71892;14.836;105.234;2024-01-15T01:17:02;27.75;;;13.35;;
82292;SDS011;71892;14.836;105.234;2024-01-15T01:19:28;27.27;;;12.93;;
82292;SDS011;71892;14.836;105.234;2024-01-15T01:21:55;28.77;;;12.73;;
82292;SDS011;71892;14.836;105.234;2024-01-15T01:24:22;25.77;;;11.70;;
82292;SDS011;71892;14.836;105.234;2024-01-15T01:26:48;27.98;;;11.95;;
82292;SDS011;71892;14.836;105.234;2024-01-15T01:29:15;22.63;;;11.40;;
82292;SDS011;71892;14.836;105.234;2024-01-15T01:31:44;20.98;;;9.85;;
82292;SDS011;71892;14.836;105.234;2024-01-15T01:34:13;22.08;;;10.85;;
82292;SDS011;71892;14.836;105.234;2024-01-15T01:36:41;39.58;;;10.43;;
82292;SDS011;71892;14.836;105.234;2024-01-15T01:39:08;20.83;;;9.10;;
82292;SDS011;71892;14.836;105.234;2024-01-15T01:41:35;18.60;;;9.63;;
82292;SDS011;71892;14.836;105.234;2024-01-15T01:44:02;17.95;;;7.97;;
82292;SDS011;71892;14.836;105.234;2024-01-15T01:46:28;15.38;;;8.82;;
82292;SDS011;71892;14.836;105.234;2024-01-15T01:48:55;18.63;;;7.63;;
82292;SDS011;71892;14.836;105.234;2024-01-15T01:51:22;12.90;;;6.90;;
82292;SDS011;71892;14.836;105.234;2024-01-15T01:53:48;14.00;;;7.53;;
82292;SDS011;71892;14.836;105.234;2024-01-15T01:56:16;17.42;;;7.35;;
82292;SDS011;71892;14.836;105.234;2024-01-15T01:58:44;12.20;;;6.78;;
82292;SDS011;71892;14.836;105.234;2024-01-15T02:01:11;15.15;;;7.70;;
82292;SDS011;71892;14.836;105.234;2024-01-15T02:03:39;11.68;;;6.85;;
82292;SDS011;71892;14.836;105.234;2024-01-15T02:06:06;13.48;;;6.68;;
82292;SDS011;71892;14.836;105.234;2024-01-15T02:08:33;18.73;;;7.35;;
82292;SDS011;71892;14.836;105.234;2024-01-15T02:11:00;17.80;;;7.85;;
82292;SDS011;71892;14.836;105.234;2024-01-15T02:13:26;17.25;;;6.60;;
82292;SDS011;71892;14.836;105.234;2024-01-15T02:15:53;11.07;;;5.80;;
82292;SDS011;71892;14.836;105.234;2024-01-15T02:18:19;15.27;;;6.22;;
82292;SDS011;71892;14.836;105.234;2024-01-15T02:20:46;10.52;;;5.10;;
82292;SDS011;71892;14.836;105.234;2024-01-15T02:23:13;14.65;;;6.35;;
82292;SDS011;71892;14.836;105.234;2024-01-15T02:25:41;10.32;;;5.55;;
82292;SDS011;71892;14.836;105.234;2024-01-15T02:28:09;64.57;;;42.40;;
82292;SDS011;71892;14.836;105.234;2024-01-15T02:30:37;14.30;;;5.97;;
82292;SDS011;71892;14.836;105.234;2024-01-15T02:33:05;13.57;;;6.35;;
82292;SDS011;71892;14.836;105.234;2024-01-15T02:35:35;13.55;;;5.68;;
82292;SDS011;71892;14.836;105.234;2024-01-15T02:38:02;12.15;;;5.78;;
82292;SDS011;71892;14.836;105.234;2024-01-15T02:40:29;11.60;;;5.80;;
82292;SDS011;71892;14.836;105.234;2024-01-15T02:42:56;14.45;;;5.82;;
82292;SDS011;71892;14.836;105.234;2024-01-15T02:45:23;10.38;;;5.32;;
82292;SDS011;71892;14.836;105.234;2024-01-15T02:47:49;13.10;;;5.68;;
82292;SDS011;71892;14.836;105.234;2024-01-15T02:50:16;9.52;;;5.32;;
82292;SDS011;71892;14.836;105.234;2024-01-15T02:52:42;10.23;;;5.55;;
82292;SDS011;71892;14.836;105.234;2024-01-15T02:55:09;11.32;;;5.72;;
82292;SDS011;71892;14.836;105.234;2024-01-15T02:57:35;15.80;;;6.45;;
82292;SDS011;71892;14.836;105.234;2024-01-15T03:00:02;11.23;;;5.45;;
82292;SDS011;71892;14.836;105.234;2024-01-15T03:02:28;11.73;;;5.00;;
82292;SDS011;71892;14.836;105.234;2024-01-15T03:04:57;9.88;;;5.03;;
82292;SDS011;71892;14.836;105.234;2024-01-15T03:07:23;9.43;;;4.90;;
82292;SDS011;71892;14.836;105.234;2024-01-15T03:09:50;13.98;;;4.82;;
82292;SDS011;71892;14.836;105.234;2024-01-15T03:12:16;13.93;;;5.35;;
82292;SDS011;71892;14.836;105.234;2024-01-15T03:14:43;10.48;;;5.10;;
82292;SDS011;71892;14.836;105.234;2024-01-15T03:17:10;14.13;;;5.32;;
82292;SDS011;71892;14.836;105.234;2024-01-15T03:19:37;10.68;;;5.28;;
82292;SDS011;71892;14.836;105.234;2024-01-15T03:22:04;30.13;;;6.03;;
82292;SDS011;71892;14.836;105.234;2024-01-15T03:24:31;13.27;;;5.47;;
82292;SDS011;71892;14.836;105.234;2024-01-15T03:26:57;9.90;;;5.10;;
82292;SDS011;71892;14.836;105.234;2024-01-15T03:29:24;13.73;;;6.03;;
82292;SDS011;71892;14.836;105.234;2024-01-15T03:31:51;13.00;;;6.03;;
82292;SDS011;71892;14.836;105.234;2024-01-15T03:34:18;17.90;;;6.03;;
82292;SDS011;71892;14.836;105.234;2024-01-15T03:36:44;13.50;;;6.10;;
82292;SDS011;71892;14.836;105.234;2024-01-15T03:39:11;9.57;;;5.55;;
82292;SDS011;71892;14.836;105.234;2024-01-15T03:41:37;12.73;;;6.13;;
82292;SDS011;71892;14.836;105.234;2024-01-15T03:44:04;16.25;;;6.40;;
82292;SDS011;71892;14.836;105.234;2024-01-15T03:46:30;15.57;;;6.40;;
82292;SDS011;71892;14.836;105.234;2024-01-15T03:48:57;13.82;;;6.03;;
82292;SDS011;71892;14.836;105.234;2024-01-15T03:51:24;11.07;;;6.10;;
82292;SDS011;71892;14.836;105.234;2024-01-15T03:53:50;11.43;;;6.07;;
82292;SDS011;71892;14.836;105.234;2024-01-15T03:56:17;15.60;;;5.35;;
82292;SDS011;71892;14.836;105.234;2024-01-15T03:58:43;13.35;;;5.47;;
82292;SDS011;71892;14.836;105.234;2024-01-15T04:01:10;10.32;;;6.00;;
82292;SDS011;71892;14.836;105.234;2024-01-15T04:03:37;9.35;;;5.63;;
82292;SDS011;71892;14.836;105.234;2024-01-15T04:06:04;11.68;;;4.90;;
82292;SDS011;71892;14.836;105.234;2024-01-15T04:08:30;10.57;;;5.60;;
82292;SDS011;71892;14.836;105.234;2024-01-15T04:10:57;10.05;;;5.22;;
82292;SDS011;71892;14.836;105.234;2024-01-15T04:13:23;13.93;;;5.53;;
82292;SDS011;71892;14.836;105.234;2024-01-15T04:15:50;10.15;;;5.65;;
82292;SDS011;71892;14.836;105.234;2024-01-15T04:18:17;8.93;;;5.05;;
82292;SDS011;71892;14.836;105.234;2024-01-15T04:20:43;9.10;;;5.25;;
82292;SDS011;71892;14.836;105.234;2024-01-15T04:23:10;9.27;;;5.45;;
82292;SDS011;71892;14.836;105.234;2024-01-15T04:25:36;10.07;;;4.88;;
82292;SDS011;71892;14.836;105.234;2024-01-15T04:28:03;11.15;;;5.15;;
82292;SDS011;71892;14.836;105.234;2024-01-15T04:30:30;11.85;;;5.10;;
82292;SDS011;71892;14.836;105.234;2024-01-15T04:32:56;10.65;;;4.95;;
82292;SDS011;71892;14.836;105.234;2024-01-15T04:35:23;10.52;;;4.97;;
82292;SDS011;71892;14.836;105.234;2024-01-15T04:37:49;11.40;;;4.45;;
82292;SDS011;71892;14.836;105.234;2024-01-15T04:40:15;8.57;;;4.43;;
82292;SDS011;71892;14.836;105.234;2024-01-15T04:42:42;7.43;;;4.25;;
82292;SDS011;71892;14.836;105.234;2024-01-15T04:45:11;11.63;;;4.80;;
82292;SDS011;71892;14.836;105.234;2024-01-15T04:47:37;11.50;;;5.43;;
82292;SDS011;71892;14.836;105.234;2024-01-15T04:50:04;8.68;;;4.85;;
82292;SDS011;71892;14.836;105.234;2024-01-15T04:52:31;9.63;;;4.30;;
82292;SDS011;71892;14.836;105.234;2024-01-15T04:54:57;11.73;;;7.03;;
82292;SDS011;71892;14.836;105.234;2024-01-15T04:57:24;9.13;;;4.28;;
82292;SDS011;71892;14.836;105.234;2024-01-15T04:59:50;8.32;;;4.65;;
82292;SDS011;71892;14.836;105.234;2024-01-15T05:02:16;13.23;;;4.43;;
82292;SDS011;71892;14.836;105.234;2024-01-15T05:04:43;9.20;;;4.53;;
82292;SDS011;71892;14.836;105.234;2024-01-15T05:07:09;15.73;;;5.45;;
82292;SDS011;71892;14.836;105.234;2024-01-15T05:09:35;11.02;;;6.72;;
82292;SDS011;71892;14.836;105.234;2024-01-15T05:12:02;12.05;;;5.43;;
82292;SDS011;71892;14.836;105.234;2024-01-15T05:14:28;9.48;;;5.38;;
82292;SDS011;71892;14.836;105.234;2024-01-15T05:16:55;12.27;;;4.68;;
82292;SDS011;71892;14.836;105.234;2024-01-15T05:19:21;6.03;;;3.63;;
82292;SDS011;71892;14.836;105.234;2024-01-15T05:21:48;8.27;;;4.25;;
82292;SDS011;71892;14.836;105.234;2024-01-15T05:24:14;10.93;;;5.03;;
82292;SDS011;71892;14.836;105.234;2024-01-15T05:26:40;11.20;;;4.43;;
82292;SDS011;71892;14.836;105.234;2024-01-15T05:29:07;8.68;;;4.18;;
82292;SDS011;71892;14.836;105.234;2024-01-15T05:31:33;10.07;;;4.30;;
82292;SDS011;71892;14.836;105.234;2024-01-15T05:33:59;8.73;;;4.05;;
82292;SDS011;71892;14.836;105.234;2024-01-15T05:36:25;10.35;;;4.15;;
82292;SDS011;71892;14.836;105.234;2024-01-15T05:38:52;9.65;;;4.32;;
82292;SDS011;71892;14.836;105.234;2024-01-15T05:41:18;7.68;;;3.88;;
82292;SDS011;71892;14.836;105.234;2024-01-15T05:43:45;10.35;;;7.03;;
82292;SDS011;71892;14.836;105.234;2024-01-15T05:46:11;8.20;;;3.45;;
82292;SDS011;71892;14.836;105.234;2024-01-15T05:48:37;12.52;;;8.02;;
82292;SDS011;71892;14.836;105.234;2024-01-15T05:51:04;13.80;;;8.27;;
82292;SDS011;71892;14.836;105.234;2024-01-15T05:53:31;10.10;;;4.75;;
82292;SDS011;71892;14.836;105.234;2024-01-15T05:55:57;8.73;;;3.78;;
82292;SDS011;71892;14.836;105.234;2024-01-15T05:58:23;8.48;;;5.65;;
82292;SDS011;71892;14.836;105.234;2024-01-15T06:00:50;11.98;;;7.38;;
82292;SDS011;71892;14.836;105.234;2024-01-15T06:03:16;8.45;;;4.53;;
82292;SDS011;71892;14.836;105.234;2024-01-15T06:05:43;14.05;;;5.97;;
82292;SDS011;71892;14.836;105.234;2024-01-15T06:08:09;10.52;;;4.60;;
82292;SDS011;71892;14.836;105.234;2024-01-15T06:10:35;9.75;;;4.18;;
82292;SDS011;71892;14.836;105.234;2024-01-15T06:13:02;9.60;;;4.20;;
82292;SDS011;71892;14.836;105.234;2024-01-15T06:15:28;12.68;;;6.25;;
82292;SDS011;71892;14.836;105.234;2024-01-15T06:17:55;18.10;;;6.70;;
82292;SDS011;71892;14.836;105.234;2024-01-15T06:20:21;10.10;;;4.10;;
82292;SDS011;71892;14.836;105.234;2024-01-15T06:22:47;7.55;;;3.88;;
82292;SDS011;71892;14.836;105.234;2024-01-15T06:25:14;10.20;;;4.05;;
82292;SDS011;71892;14.836;105.234;2024-01-15T06:27:40;8.85;;;4.25;;
82292;SDS011;71892;14.836;105.234;2024-01-15T06:30:07;8.88;;;4.13;;
82292;SDS011;71892;14.836;105.234;2024-01-15T06:32:34;34.08;;;5.10;;
82292;SDS011;71892;14.836;105.234;2024-01-15T06:35:00;9.63;;;4.20;;
82292;SDS011;71892;14.836;105.234;2024-01-15T06:37:26;7.35;;;4.03;;
82292;SDS011;71892;14.836;105.234;2024-01-15T06:39:53;10.27;;;5.32;;
82292;SDS011;71892;14.836;105.234;2024-01-15T06:42:19;11.82;;;4.40;;
82292;SDS011;71892;14.836;105.234;2024-01-15T06:44:47;11.68;;;4.88;;
82292;SDS011;71892;14.836;105.234;2024-01-15T06:47:13;27.33;;;14.07;;
82292;SDS011;71892;14.836;105.234;2024-01-15T06:49:40;8.02;;;4.18;;
82292;SDS011;71892;14.836;105.234;2024-01-15T06:52:06;10.77;;;4.95;;
82292;SDS011;71892;14.836;105.234;2024-01-15T06:54:32;8.50;;;3.80;;
82292;SDS011;71892;14.836;105.234;2024-01-15T06:56:59;10.20;;;4.28;;
82292;SDS011;71892;14.836;105.234;2024-01-15T06:59:25;8.07;;;3.70;;
82292;SDS011;71892;14.836;105.234;2024-01-15T07:01:52;20.88;;;4.30;;
82292;SDS011;71892;14.836;105.234;2024-01-15T07:04:18;12.38;;;4.30;;
82292;SDS011;71892;14.836;105.234;2024-01-15T07:06:44;7.28;;;3.92;;
82292;SDS011;71892;14.836;105.234;2024-01-15T07:09:11;13.15;;;4.68;;
82292;SDS011;71892;14.836;105.234;2024-01-15T07:11:37;8.02;;;4.18;;
82292;SDS011;71892;14.836;105.234;2024-01-15T07:14:04;7.88;;;4.20;;
82292;SDS011;71892;14.836;105.234;2024-01-15T07:16:30;6.47;;;3.55;;
82292;SDS011;71892;14.836;105.234;2024-01-15T07:18:56;10.68;;;3.97;;
82292;SDS011;71892;14.836;105.234;2024-01-15T07:21:23;11.75;;;4.75;;
82292;SDS011;71892;14.836;105.234;2024-01-15T07:23:49;9.65;;;4.35;;
82292;SDS011;71892;14.836;105.234;2024-01-15T07:26:16;11.13;;;4.40;;
82292;SDS011;71892;14.836;105.234;2024-01-15T07:28:42;12.75;;;4.38;;
82292;SDS011;71892;14.836;105.234;2024-01-15T07:31:08;8.50;;;4.40;;
82292;SDS011;71892;14.836;105.234;2024-01-15T07:33:35;8.05;;;4.50;;
82292;SDS011;71892;14.836;105.234;2024-01-15T07:36:01;12.55;;;4.18;;
82292;SDS011;71892;14.836;105.234;2024-01-15T07:38:28;9.13;;;4.70;;
82292;SDS011;71892;14.836;105.234;2024-01-15T07:40:54;7.28;;;4.38;;
82292;SDS011;71892;14.836;105.234;2024-01-15T07:43:21;10.70;;;5.60;;
82292;SDS011;71892;14.836;105.234;2024-01-15T07:45:48;28.35;;;6.00;;
82292;SDS011;71892;14.836;105.234;2024-01-15T07:48:14;16.38;;;5.35;;
82292;SDS011;71892;14.836;105.234;2024-01-15T07:50:40;10.43;;;4.85;;
82292;SDS011;71892;14.836;105.234;2024-01-15T07:53:07;15.25;;;4.60;;
82292;SDS011;71892;14.836;105.234;2024-01-15T07:55:33;9.40;;;5.18;;
82292;SDS011;71892;14.836;105.234;2024-01-15T07:58:00;11.02;;;4.53;;
82292;SDS011;71892;14.836;105.234;2024-01-15T08:00:27;11.07;;;4.20;;
82292;SDS011;71892;14.836;105.234;2024-01-15T08:02:53;8.93;;;4.03;;
82292;SDS011;71892;14.836;105.234;2024-01-15T08:05:20;8.70;;;3.95;;
82292;SDS011;71892;14.836;105.234;2024-01-15T08:07:46;13.20;;;4.78;;
82292;SDS011;71892;14.836;105.234;2024-01-15T08:10:13;11.05;;;4.38;;
82292;SDS011;71892;14.836;105.234;2024-01-15T08:12:39;8.43;;;3.85;;
82292;SDS011;71892;14.836;105.234;2024-01-15T08:15:06;10.20;;;4.32;;
82292;SDS011;71892;14.836;105.234;2024-01-15T08:17:32;8.57;;;4.30;;
82292;SDS011;71892;14.836;105.234;2024-01-15T08:19:59;7.32;;;3.97;;
82292;SDS011;71892;14.836;105.234;2024-01-15T08:22:26;7.97;;;4.03;;
82292;SDS011;71892;14.836;105.234;2024-01-15T08:24:53;6.90;;;3.60;;
82292;SDS011;71892;14.836;105.234;2024-01-15T08:27:20;7.03;;;3.67;;
82292;SDS011;71892;14.836;105.234;2024-01-15T08:29:47;8.85;;;4.25;;
82292;SDS011;71892;14.836;105.234;2024-01-15T08:32:13;9.45;;;4.10;;
82292;SDS011;71892;14.836;105.234;2024-01-15T08:34:41;12.80;;;3.55;;
82292;SDS011;71892;14.836;105.234;2024-01-15T08:37:08;7.72;;;3.38;;
82292;SDS011;71892;14.836;105.234;2024-01-15T08:39:34;9.20;;;3.15;;
82292;SDS011;71892;14.836;105.234;2024-01-15T08:42:04;10.38;;;3.70;;
82292;SDS011;71892;14.836;105.234;2024-01-15T08:44:31;14.63;;;4.10;;
82292;SDS011;71892;14.836;105.234;2024-01-15T08:46:57;11.88;;;3.95;;
82292;SDS011;71892;14.836;105.234;2024-01-15T08:49:24;11.13;;;4.28;;
82292;SDS011;71892;14.836;105.234;2024-01-15T08:51:50;11.93;;;3.90;;
82292;SDS011;71892;14.836;105.234;2024-01-15T08:54:17;13.40;;;4.35;;
82292;SDS011;71892;14.836;105.234;2024-01-15T08:56:44;9.10;;;3.30;;
82292;SDS011;71892;14.836;105.234;2024-01-15T08:59:10;8.90;;;3.55;;
82292;SDS011;71892;14.836;105.234;2024-01-15T09:01:38;10.27;;;5.55;;
82292;SDS011;71892;14.836;105.234;2024-01-15T09:04:05;8.27;;;3.72;;
82292;SDS011;71892;14.836;105.234;2024-01-15T09:06:31;15.90;;;4.63;;
82292;SDS011;71892;14.836;105.234;2024-01-15T09:08:58;13.73;;;4.32;;
82292;SDS011;71892;14.836;105.234;2024-01-15T09:11:26;9.60;;;4.07;;
82292;SDS011;71892;14.836;105.234;2024-01-15T09:13:52;13.27;;;5.07;;
82292;SDS011;71892;14.836;105.234;2024-01-15T09:16:19;8.05;;;4.40;;
82292;SDS011;71892;14.836;105.234;2024-01-15T09:18:45;13.60;;;4.75;;
82292;SDS011;71892;14.836;105.234;2024-01-15T09:21:12;8.50;;;4.18;;
82292;SDS011;71892;14.836;105.234;2024-01-15T09:23:38;8.55;;;4.30;;
82292;SDS011;71892;14.836;105.234;2024-01-15T09:26:06;12.80;;;4.70;;
82292;SDS011;71892;14.836;105.234;2024-01-15T09:28:34;12.02;;;3.78;;
82292;SDS011;71892;14.836;105.234;2024-01-15T09:31:01;10.35;;;3.78;;
82292;SDS011;71892;14.836;105.234;2024-01-15T09:33:27;5.63;;;3.70;;
82292;SDS011;71892;14.836;105.234;2024-01-15T09:35:54;7.40;;;3.88;;
82292;SDS011;71892;14.836;105.234;2024-01-15T09:38:20;10.07;;;4.68;;
82292;SDS011;71892;14.836;105.234;2024-01-15T09:40:47;8.23;;;4.00;;
82292;SDS011;71892;14.836;105.234;2024-01-15T09:43:14;10.88;;;4.75;;
82292;SDS011;71892;14.836;105.234;2024-01-15T09:45:41;11.38;;;4.65;;
82292;SDS011;71892;14.836;105.234;2024-01-15T09:48:08;7.80;;;3.22;;
82292;SDS011;71892;14.836;105.234;2024-01-15T09:50:34;16.25;;;6.53;;
82292;SDS011;71892;14.836;105.234;2024-01-15T09:53:02;19.30;;;6.45;;
82292;SDS011;71892;14.836;105.234;2024-01-15T09:55:29;16.17;;;7.10;;
82292;SDS011;71892;14.836;105.234;2024-01-15T09:57:58;12.57;;;5.43;;
82292;SDS011;71892;14.836;105.234;2024-01-15T10:00:27;14.45;;;5.05;;
82292;SDS011;71892;14.836;105.234;2024-01-15T10:02:55;15.10;;;4.35;;
82292;SDS011;71892;14.836;105.234;2024-01-15T10:05:22;8.55;;;3.95;;
82292;SDS011;71892;14.836;105.234;2024-01-15T10:07:49;13.02;;;4.38;;
82292;SDS011;71892;14.836;105.234;2024-01-15T10:10:17;7.45;;;3.75;;
82292;SDS011;71892;14.836;105.234;2024-01-15T10:12:43;14.75;;;4.90;;
82292;SDS011;71892;14.836;105.234;2024-01-15T10:15:10;12.30;;;4.53;;
82292;SDS011;71892;14.836;105.234;2024-01-15T10:17:38;9.50;;;4.40;;
82292;SDS011;71892;14.836;105.234;2024-01-15T10:20:14;12.10;;;5.65;;
82292;SDS011;71892;14.836;105.234;2024-01-15T10:22:41;12.20;;;5.45;;
82292;SDS011;71892;14.836;105.234;2024-01-15T10:25:15;9.48;;;4.22;;
82292;SDS011;71892;14.836;105.234;2024-01-15T10:27:41;31.25;;;5.78;;
82292;SDS011;71892;14.836;105.234;2024-01-15T10:30:09;12.73;;;4.80;;
82292;SDS011;71892;14.836;105.234;2024-01-15T10:32:37;14.05;;;4.72;;
82292;SDS011;71892;14.836;105.234;2024-01-15T10:35:03;14.65;;;4.95;;
82292;SDS011;71892;14.836;105.234;2024-01-15T10:37:35;24.75;;;5.13;;
82292;SDS011;71892;14.836;105.234;2024-01-15T10:40:02;18.52;;;4.57;;
82292;SDS011;71892;14.836;105.234;2024-01-15T10:42:32;19.75;;;4.70;;
82292;SDS011;71892;14.836;105.234;2024-01-15T10:44:58;11.38;;;4.65;;
82292;SDS011;71892;14.836;105.234;2024-01-15T10:47:24;13.10;;;4.38;;
82292;SDS011;71892;14.836;105.234;2024-01-15T10:49:51;15.65;;;4.68;;
82292;SDS011;71892;14.836;105.234;2024-01-15T10:52:18;14.73;;;4.75;;
82292;SDS011;71892;14.836;105.234;2024-01-15T10:54:45;20.13;;;5.10;;
82292;SDS011;71892;14.836;105.234;2024-01-15T10:57:12;18.48;;;5.82;;
82292;SDS011;71892;14.836;105.234;2024-01-15T10:59:41;15.60;;;5.15;;
82292;SDS011;71892;14.836;105.234;2024-01-15T11:02:07;17.15;;;6.65;;
82292;SDS011;71892;14.836;105.234;2024-01-15T11:04:35;12.95;;;5.07;;
82292;SDS011;71892;14.836;105.234;2024-01-15T11:07:03;14.07;;;5.18;;
82292;SDS011;71892;14.836;105.234;2024-01-15T11:09:31;18.35;;;5.95;;
82292;SDS011;71892;14.836;105.234;2024-01-15T11:12:07;43.80;;;23.38;;
82292;SDS011;71892;14.836;105.234;2024-01-15T11:14:35;19.33;;;8.23;;
82292;SDS011;71892;14.836;105.234;2024-01-15T11:17:11;32.85;;;8.38;;
82292;SDS011;71892;14.836;105.234;2024-01-15T11:24:57;14.23;;;5.55;;
82292;SDS011;71892;14.836;105.234;2024-01-15T11:27:41;15.27;;;6.20;;
82292;SDS011;71892;14.836;105.234;2024-01-15T11:30:21;19.17;;;9.52;;
82292;SDS011;71892;14.836;105.234;2024-01-15T11:32:51;26.23;;;11.73;;
82292;SDS011;71892;14.836;105.234;2024-01-15T11:35:17;20.15;;;10.55;;
82292;SDS011;71892;14.836;105.234;2024-01-15T11:40:17;22.42;;;11.55;;
82292;SDS011;71892;14.836;105.234;2024-01-15T11:42:45;18.35;;;9.00;;
82292;SDS011;71892;14.836;105.234;2024-01-15T11:45:13;19.00;;;9.05;;
82292;SDS011;71892;14.836;105.234;2024-01-15T11:55:44;82.13;;;40.10;;
82292;SDS011;71892;14.836;105.234;2024-01-15T11:58:11;125.88;;;62.38;;
82292;SDS011;71892;14.836;105.234;2024-01-15T12:00:39;284.05;;;155.52;;
82292;SDS011;71892;14.836;105.234;2024-01-15T12:03:07;626.05;;;418.33;;
82292;SDS011;71892;14.836;105.234;2024-01-15T12:05:36;821.42;;;555.75;;
82292;SDS011;71892;14.836;105.234;2024-01-15T12:08:03;635.53;;;417.45;;
82292;SDS011;71892;14.836;105.234;2024-01-15T12:10:39;630.55;;;404.40;;
82292;SDS011;71892;14.836;105.234;2024-01-15T12:13:13;408.20;;;208.40;;
82292;SDS011;71892;14.836;105.234;2024-01-15T12:15:40;558.75;;;344.38;;
82292;SDS011;71892;14.836;105.234;2024-01-15T12:18:08;623.53;;;380.05;;
82292;SDS011;71892;14.836;105.234;2024-01-15T12:20:36;449.83;;;235.85;;
82292;SDS011;71892;14.836;105.234;2024-01-15T12:23:03;247.50;;;121.68;;
82292;SDS011;71892;14.836;105.234;2024-01-15T12:25:30;122.18;;;58.58;;
82292;SDS011;71892;14.836;105.234;2024-01-15T12:27:57;70.40;;;35.90;;
82292;SDS011;71892;14.836;105.234;2024-01-15T12:30:25;161.98;;;80.43;;
82292;SDS011;71892;14.836;105.234;2024-01-15T12:32:52;168.75;;;77.32;;
82292;SDS011;71892;14.836;105.234;2024-01-15T12:35:19;198.80;;;95.95;;
82292;SDS011;71892;14.836;105.234;2024-01-15T12:37:46;515.00;;;284.48;;
82292;SDS011;71892;14.836;105.234;2024-01-15T12:40:19;409.45;;;210.85;;
82292;SDS011;71892;14.836;105.234;2024-01-15T12:42:46;379.95;;;197.07;;
82292;SDS011;71892;14.836;105.234;2024-01-15T12:45:13;288.75;;;141.50;;
82292;SDS011;71892;14.836;105.234;2024-01-15T12:47:40;121.55;;;53.88;;
82292;SDS011;71892;14.836;105.234;2024-01-15T12:50:08;84.97;;;38.05;;
82292;SDS011;71892;14.836;105.234;2024-01-15T12:52:36;50.50;;;19.73;;
82292;SDS011;71892;14.836;105.234;2024-01-15T12:55:07;48.15;;;21.15;;
82292;SDS011;71892;14.836;105.234;2024-01-15T12:57:34;37.88;;;19.25;;
82292;SDS011;71892;14.836;105.234;2024-01-15T13:00:04;40.22;;;20.45;;
82292;SDS011;71892;14.836;105.234;2024-01-15T13:02:38;38.80;;;17.80;;
82292;SDS011;71892;14.836;105.234;2024-01-15T13:05:08;23.30;;;12.93;;
82292;SDS011;71892;14.836;105.234;2024-01-15T13:07:38;22.35;;;10.95;;
82292;SDS011;71892;14.836;105.234;2024-01-15T13:10:05;43.75;;;20.58;;
82292;SDS011;71892;14.836;105.234;2024-01-15T13:12:33;273.23;;;132.93;;
82292;SDS011;71892;14.836;105.234;2024-01-15T13:15:00;49.60;;;22.90;;
82292;SDS011;71892;14.836;105.234;2024-01-15T13:17:28;24.73;;;9.68;;
82292;SDS011;71892;14.836;105.234;2024-01-15T13:19:55;22.30;;;8.75;;
82292;SDS011;71892;14.836;105.234;2024-01-15T13:22:21;22.55;;;10.00;;
82292;SDS011;71892;14.836;105.234;2024-01-15T13:24:49;37.10;;;16.23;;
82292;SDS011;71892;14.836;105.234;2024-01-15T13:27:16;38.95;;;19.40;;
82292;SDS011;71892;14.836;105.234;2024-01-15T13:29:42;29.40;;;12.88;;
82292;SDS011;71892;14.836;105.234;2024-01-15T13:32:10;22.65;;;9.80;;
82292;SDS011;71892;14.836;105.234;2024-01-15T13:34:41;27.95;;;12.07;;
82292;SDS011;71892;14.836;105.234;2024-01-15T13:37:08;21.00;;;9.82;;
82292;SDS011;71892;14.836;105.234;2024-01-15T13:39:35;23.35;;;8.65;;
82292;SDS011;71892;14.836;105.234;2024-01-15T13:42:02;15.80;;;9.00;;
82292;SDS011;71892;14.836;105.234;2024-01-15T13:44:28;15.50;;;9.43;;
82292;SDS011;71892;14.836;105.234;2024-01-15T13:46:55;19.05;;;10.20;;
82292;SDS011;71892;14.836;105.234;2024-01-15T13:49:22;22.75;;;10.30;;
82292;SDS011;71892;14.836;105.234;2024-01-15T13:51:49;21.23;;;9.07;;
82292;SDS011;71892;14.836;105.234;2024-01-15T13:54:16;18.17;;;10.27;;
82292;SDS011;71892;14.836;105.234;2024-01-15T13:56:42;19.20;;;8.88;;
82292;SDS011;71892;14.836;105.234;2024-01-15T13:59:09;23.73;;;9.82;;
82292;SDS011;71892;14.836;105.234;2024-01-15T14:01:36;17.15;;;8.45;;
82292;SDS011;71892;14.836;105.234;2024-01-15T14:04:03;21.02;;;8.93;;
82292;SDS011;71892;14.836;105.234;2024-01-15T14:06:29;17.92;;;9.43;;
82292;SDS011;71892;14.836;105.234;2024-01-15T14:08:56;20.95;;;8.52;;
82292;SDS011;71892;14.836;105.234;2024-01-15T14:11:22;15.13;;;7.20;;
82292;SDS011;71892;14.836;105.234;2024-01-15T14:13:49;16.30;;;7.32;;
82292;SDS011;71892;14.836;105.234;2024-01-15T14:16:15;15.18;;;7.07;;
82292;SDS011;71892;14.836;105.234;2024-01-15T14:18:42;16.90;;;7.63;;
82292;SDS011;71892;14.836;105.234;2024-01-15T14:21:08;20.50;;;7.97;;